Time;durP1;ratioP1;P1;durP2;ratioP2;P2;SDS_P1;SDS_P2;PMS_P1;PMS_P2;Temp;Humidity;BMP_temperature;BMP_pressure;BME280_temperature;BME280_humidity;BME280_pressure;Samples;Min_cycle;Max_cycle;Signal;HPM_P1;HPM_P2
2024/03/23 00:01:40;;;;;;;11.18;2.95;;;;;;;4.36;100.00;100660.41;4752697;29;20081;-94
2024/03/23 00:04:15;;;;;;;21.27;2.97;;;;;;;4.31;100.00;100667.69;4790220;29;20042;-94
2024/03/23 00:06:43;;;;;;;20.80;3.47;;;;;;;4.28;100.00;100668.75;4796706;29;20062;-93
2024/03/23 00:09:12;;;;;;;14.95;3.03;;;;;;;4.24;100.00;100663.81;4773144;29;20133;-94
2024/03/23 00:11:40;;;;;;;16.10;3.25;;;;;;;4.25;100.00;100671.56;4768589;29;20057;-95
2024/03/23 00:14:09;;;;;;;15.77;2.53;;;;;;;4.16;100.00;100664.25;4763542;29;20133;-93
2024/03/23 00:16:40;;;;;;;11.48;2.10;;;;;;;4.16;100.00;100666.88;4761979;29;20054;-94
2024/03/23 00:22:43;;;;;;;15.82;2.40;;;;;;;4.13;100.00;100651.38;4793752;29;20050;-94
2024/03/23 00:25:40;;;;;;;18.23;2.83;;;;;;;4.09;100.00;100648.13;4770770;30;20101;-94
2024/03/23 00:29:14;;;;;;;16.08;2.70;;;;;;;4.11;100.00;100655.88;4718043;30;20045;-94
2024/03/23 00:31:47;;;;;;;9.90;2.33;;;;;;;4.08;100.00;100657.75;4743292;30;20131;-94
2024/03/23 00:34:26;;;;;;;13.35;3.95;;;;;;;4.04;100.00;100656.28;4737952;30;20067;-93
2024/03/23 00:36:55;;;;;;;15.80;3.90;;;;;;;4.06;100.00;100654.38;4753019;29;20499;-94
2024/03/23 00:39:42;;;;;;;17.05;3.83;;;;;;;4.06;100.00;100657.00;4770883;29;20046;-94
2024/03/23 00:42:52;;;;;;;14.77;3.75;;;;;;;4.02;100.00;100639.81;4737667;30;20507;-93
2024/03/23 00:45:20;;;;;;;13.70;3.15;;;;;;;4.00;100.00;100639.06;4744950;30;20039;-95
2024/03/23 00:47:59;;;;;;;12.80;3.28;;;;;;;4.04;100.00;100642.34;4756632;30;20048;-94
2024/03/23 00:50:42;;;;;;;14.52;3.38;;;;;;;4.04;100.00;100635.34;4754842;30;20054;-93
2024/03/23 00:53:15;;;;;;;12.15;2.88;;;;;;;4.03;100.00;100641.50;4724038;30;20051;-94
2024/03/23 00:55:44;;;;;;;15.25;2.28;;;;;;;4.04;100.00;100629.25;4757501;29;20113;-93
2024/03/23 01:05:57;;;;;;;12.98;2.67;;;;;;;3.99;100.00;100632.16;4786529;29;20046;-95
2024/03/23 01:09:10;;;;;;;12.98;3.15;;;;;;;4.08;100.00;100641.19;4763484;29;20039;-95
2024/03/23 01:12:15;;;;;;;16.33;2.50;;;;;;;4.04;100.00;100627.50;4767262;29;20449;-94
2024/03/23 01:18:46;;;;;;;12.40;2.10;;;;;;;4.03;100.00;100615.34;4779770;29;20723;-92
2024/03/23 01:21:55;;;;;;;13.07;2.08;;;;;;;4.03;100.00;100620.56;4794339;29;20051;-95
2024/03/23 01:24:55;;;;;;;13.40;2.33;;;;;;;4.06;100.00;100614.31;4783716;29;20051;-94
2024/03/23 01:30:37;;;;;;;12.10;1.45;;;;;;;4.10;100.00;100613.19;4804262;29;20061;-95
2024/03/23 01:33:15;;;;;;;12.50;1.95;;;;;;;4.11;100.00;100608.78;4793275;29;20038;-95
2024/03/23 01:40:33;;;;;;;;;;;;;;;;;;;;;
2024/03/23 01:44:08;;;;;;;16.35;2.55;;;;;;;4.09;100.00;100578.31;4805875;29;20062;-94
2024/03/23 01:46:50;;;;;;;12.13;2.60;;;;;;;4.12;100.00;100589.53;4776133;29;20031;-94
2024/03/23 01:50:36;;;;;;;11.93;1.73;;;;;;;4.10;100.00;100573.94;4768767;30;20187;-94
2024/03/23 01:53:22;;;;;;;;;;;;;;;;;;;;;
2024/03/23 01:56:55;;;;;;;13.43;1.55;;;;;;;4.12;100.00;100579.06;4732525;30;20225;-95
2024/03/23 02:07:13;;;;;;;15.27;2.20;;;;;;;4.17;100.00;100562.13;4745180;30;20182;-96
2024/03/23 02:13:27;;;;;;;12.50;2.13;;;;;;;4.23;100.00;100553.06;4790224;29;20146;-95
2024/03/23 02:16:59;;;;;;;8.88;1.67;;;;;;;4.24;100.00;100553.91;4835919;29;20085;-94
2024/03/23 02:19:48;;;;;;;13.50;3.00;;;;;;;4.13;100.00;100555.44;4825071;29;20060;-94
2024/03/23 02:22:45;;;;;;;11.73;1.98;;;;;;;4.16;100.00;100541.28;4792495;29;20117;-95
2024/03/23 02:29:42;;;;;;;10.23;1.63;;;;;;;4.21;100.00;100534.84;4803857;29;20058;-91
2024/03/23 02:33:00;;;;;;;6.40;1.15;;;;;;;4.26;100.00;100528.47;4777461;29;20053;-94
2024/03/23 02:36:37;;;;;;;12.15;2.28;;;;;;;4.22;100.00;100528.66;4792798;29;20043;-92
2024/03/23 02:39:09;;;;;;;14.75;1.65;;;;;;;4.22;100.00;100523.44;4737353;30;20044;-95
2024/03/23 02:42:01;;;;;;;12.90;1.75;;;;;;;4.24;100.00;100502.41;4734953;30;20541;-93
2024/03/23 02:45:35;;;;;;;7.47;2.05;;;;;;;4.25;100.00;100517.19;4763696;30;20047;-95
2024/03/23 02:49:02;;;;;;;;;;;;;;;;;;;;;
2024/03/23 02:52:41;;;;;;;;;;;;;;;;;;;;;
2024/03/23 02:56:21;;;;;;;13.70;1.48;;;;;;;4.18;100.00;100515.88;4749044;30;20614;-94
2024/03/23 02:59:14;;;;;;;16.90;1.90;;;;;;;4.16;100.00;100502.06;4776796;30;20043;-93
2024/03/23 03:01:55;;;;;;;11.05;2.00;;;;;;;4.16;100.00;100507.28;4784284;29;20061;-94
2024/03/23 03:04:38;;;;;;;16.65;2.00;;;;;;;4.12;100.00;100503.22;4779291;29;20056;-95
2024/03/23 03:07:10;;;;;;;15.30;2.03;;;;;;;4.19;100.00;100500.09;4776571;29;20054;-95
2024/03/23 03:09:58;;;;;;;24.92;4.60;;;;;;;4.14;100.00;100493.50;4809393;29;20059;-95
2024/03/23 03:15:32;;;;;;;6.85;1.33;;;;;;;4.09;100.00;100484.16;4821912;29;20069;-91
2024/03/23 03:18:19;;;;;;;12.27;1.83;;;;;;;4.12;100.00;100483.13;4830272;29;20186;-94
2024/03/23 03:20:46;;;;;;;9.05;1.67;;;;;;;4.14;100.00;100481.22;4801214;29;20046;-94
2024/03/23 03:23:19;;;;;;;12.30;1.38;;;;;;;4.20;100.00;100482.63;4809009;29;20041;-96
2024/03/23 03:26:07;;;;;;;9.93;1.23;;;;;;;4.24;100.00;100485.88;4780137;29;20051;-95
2024/03/23 03:28:39;;;;;;;8.90;2.38;;;;;;;4.21;100.00;100477.28;4807331;29;20046;-94
2024/03/23 03:31:12;;;;;;;11.98;1.42;;;;;;;4.21;100.00;100474.66;4772105;29;20309;-94
2024/03/23 03:34:05;;;;;;;8.35;1.35;;;;;;;4.22;100.00;100470.28;4809432;29;20130;-95
2024/03/23 03:36:31;;;;;;;7.28;1.70;;;;;;;4.22;100.00;100473.72;4776356;29;20038;-94
2024/03/23 03:39:08;;;;;;;10.15;1.33;;;;;;;4.28;100.00;100469.03;4805181;29;20501;-95
2024/03/23 03:42:10;;;;;;;11.43;1.92;;;;;;;4.30;100.00;100472.38;4788845;29;20050;-94
2024/03/23 03:44:49;;;;;;;12.80;1.50;;;;;;;4.32;100.00;100455.63;4792521;29;20042;-94
2024/03/23 03:47:26;;;;;;;10.30;2.33;;;;;;;4.32;100.00;100458.25;4798461;29;20951;-93
2024/03/23 03:49:52;;;;;;;23.08;2.33;;;;;;;4.34;100.00;100455.53;4774224;29;20125;-94
2024/03/23 03:52:26;;;;;;;10.07;1.35;;;;;;;4.41;100.00;100450.72;4801545;29;20041;-95
2024/03/23 03:55:27;;;;;;;6.85;1.33;;;;;;;4.40;100.00;100455.09;4809982;29;20118;-94
2024/03/23 03:58:28;;;;;;;18.58;2.25;;;;;;;4.39;100.00;100453.44;4815884;29;20045;-93
2024/03/23 04:01:09;;;;;;;15.70;1.95;;;;;;;4.43;100.00;100433.97;4786603;29;20037;-94
2024/03/23 04:03:43;;;;;;;15.07;1.95;;;;;;;4.47;100.00;100453.72;4779473;29;20038;-95
2024/03/23 04:06:24;;;;;;;16.30;1.80;;;;;;;4.48;100.00;100451.97;4784197;29;20042;-94
2024/03/23 04:09:19;;;;;;;15.75;3.63;;;;;;;4.43;100.00;100441.81;4786530;29;20057;-94
2024/03/23 04:15:39;;;;;;;15.68;2.17;;;;;;;4.46;100.00;100446.00;4794729;29;20046;-93
2024/03/23 04:18:27;;;;;;;20.85;2.50;;;;;;;4.43;100.00;100444.44;4780533;29;20134;-94
2024/03/23 04:21:28;;;;;;;21.02;2.40;;;;;;;4.44;100.00;100440.03;4778479;29;20043;-94
2024/03/23 04:24:18;;;;;;;15.52;4.22;;;;;;;4.46;100.00;100433.75;4774971;29;20070;-94
2024/03/23 04:26:59;;;;;;;20.67;3.35;;;;;;;4.50;100.00;100430.91;4766204;29;20499;-93
2024/03/23 04:29:33;;;;;;;11.65;2.03;;;;;;;4.50;100.00;100415.22;4780128;29;20051;-94
2024/03/23 04:32:17;;;;;;;18.40;2.42;;;;;;;4.52;100.00;100411.56;4766704;29;20578;-93
2024/03/23 04:35:25;;;;;;;16.15;2.60;;;;;;;4.55;100.00;100407.88;4783200;29;20038;-93
2024/03/23 04:38:07;;;;;;;21.90;2.65;;;;;;;4.50;100.00;100409.97;4772958;29;20081;-94
2024/03/23 04:41:09;;;;;;;11.90;3.13;;;;;;;4.49;100.00;100405.69;4814625;29;20035;-94
2024/03/23 04:51:06;;;;;;;17.55;1.85;;;;;;;4.47;100.00;100395.34;4777421;29;20047;-94
2024/03/23 04:57:32;;;;;;;17.15;1.92;;;;;;;4.51;100.00;100404.63;4783625;29;20055;-94
2024/03/23 04:59:58;;;;;;;16.45;2.17;;;;;;;4.44;100.00;100395.53;4787969;29;20474;-91
2024/03/23 05:02:34;;;;;;;8.20;1.67;;;;;;;4.42;100.00;100394.81;4789326;29;20050;-95
2024/03/23 05:05:11;;;;;;;17.08;1.63;;;;;;;4.46;100.00;100377.94;4787777;29;20052;-93
2024/03/23 05:07:46;;;;;;;10.38;1.42;;;;;;;4.51;100.00;100398.59;4763011;30;20047;-94
2024/03/23 05:10:21;;;;;;;11.50;2.60;;;;;;;4.47;100.00;100379.63;4790863;29;20042;-92
2024/03/23 05:12:53;;;;;;;15.88;2.20;;;;;;;4.44;100.00;100361.53;4796797;29;20074;-94
2024/03/23 05:15:38;;;;;;;11.13;1.67;;;;;;;4.49;100.00;100367.25;4810620;29;20129;-93
2024/03/23 05:18:31;;;;;;;9.80;2.33;;;;;;;4.54;100.00;100343.41;4809738;29;20090;-96
2024/03/23 05:21:18;;;;;;;5.80;1.45;;;;;;;4.56;100.00;100344.97;4781859;29;20042;-91
2024/03/23 05:23:47;;;;;;;13.82;1.70;;;;;;;4.54;100.00;100344.22;4806576;29;20074;-94
2024/03/23 05:26:59;;;;;;;4.45;0.77;;;;;;;4.55;100.00;100342.44;4822929;29;20035;-94
2024/03/23 05:30:05;;;;;;;7.63;1.45;;;;;;;4.58;100.00;100355.31;4788799;29;20077;-93
2024/03/23 05:32:55;;;;;;;14.55;1.85;;;;;;;4.46;100.00;100357.84;4814549;29;20129;-94
2024/03/23 05:35:33;;;;;;;6.72;1.27;;;;;;;4.54;100.00;100356.50;4789048;29;20081;-93
2024/03/23 05:38:12;;;;;;;6.90;1.20;;;;;;;4.56;100.00;100342.34;4841050;29;20176;-94
2024/03/23 05:41:02;;;;;;;7.22;1.42;;;;;;;4.63;100.00;100344.53;4795366;29;20129;-93
2024/03/23 05:43:29;;;;;;;10.45;1.33;;;;;;;4.60;100.00;100348.22;4798733;29;20073;-94
2024/03/23 05:46:05;;;;;;;8.98;2.10;;;;;;;4.68;100.00;100342.44;4811344;29;20038;-95
2024/03/23 05:49:04;;;;;;;7.78;1.38;;;;;;;4.65;100.00;100333.00;4799895;29;20129;-94
2024/03/23 05:51:37;;;;;;;13.60;1.38;;;;;;;4.62;100.00;100338.44;4791574;29;20824;-94
2024/03/23 05:54:03;;;;;;;5.00;1.13;;;;;;;4.64;100.00;100335.72;4810408;29;20043;-93
2024/03/23 05:56:32;;;;;;;15.80;1.77;;;;;;;4.65;100.00;100338.22;4801994;29;20071;-94
2024/03/23 05:59:51;;;;;;;11.02;1.30;;;;;;;4.69;100.00;100328.38;4795226;29;20046;-94
2024/03/23 06:02:24;;;;;;;12.70;1.60;;;;;;;4.65;100.00;100359.16;4783804;29;20101;-93
2024/03/23 06:08:28;;;;;;;8.57;1.30;;;;;;;4.60;100.00;100356.06;4820857;29;20053;-95
2024/03/23 06:10:54;;;;;;;10.93;1.10;;;;;;;4.66;100.00;100358.25;4776018;29;20049;-93
2024/03/23 06:13:29;;;;;;;8.27;1.25;;;;;;;4.64;100.00;100348.81;4788518;29;20046;-92
2024/03/23 06:16:08;;;;;;;8.20;1.38;;;;;;;4.63;100.00;100350.59;4781908;29;20050;-95
2024/03/23 06:18:44;;;;;;;10.75;1.55;;;;;;;4.62;100.00;100350.72;4803008;29;20106;-95
2024/03/23 06:21:18;;;;;;;5.68;0.90;;;;;;;4.63;100.00;100348.00;4806938;29;20042;-94
2024/03/23 06:23:53;;;;;;;16.77;1.83;;;;;;;4.65;100.00;100345.25;4792238;29;20046;-93
2024/03/23 06:26:24;;;;;;;8.95;2.10;;;;;;;4.58;100.00;100337.00;4792514;29;20173;-96
2024/03/23 06:28:55;;;;;;;13.35;1.85;;;;;;;4.64;100.00;100333.94;4792478;29;20053;-94
2024/03/23 06:31:59;;;;;;;10.75;1.77;;;;;;;4.62;100.00;100327.97;4812100;29;20042;-95
2024/03/23 06:34:36;;;;;;;12.07;1.20;;;;;;;4.58;100.00;100337.84;4805896;29;20042;-94
2024/03/23 06:37:17;;;;;;;8.55;1.33;;;;;;;4.59;100.00;100333.44;4780474;29;20049;-95
2024/03/23 06:40:09;;;;;;;6.35;0.95;;;;;;;4.60;100.00;100327.25;4779033;29;20042;-95
2024/03/23 06:43:08;;;;;;;10.60;1.67;;;;;;;4.61;100.00;100331.53;4791605;29;20102;-95
2024/03/23 06:45:55;;;;;;;14.85;2.08;;;;;;;4.62;100.00;100327.97;4806478;29;20038;-95
2024/03/23 06:51:52;;;;;;;9.68;1.33;;;;;;;4.67;100.00;100318.00;4791344;29;20394;-94
2024/03/23 06:54:33;;;;;;;14.48;2.00;;;;;;;4.68;100.00;100316.25;4792786;29;20038;-94
2024/03/23 06:57:03;;;;;;;11.27;1.75;;;;;;;4.70;100.00;100316.94;4792164;29;20103;-95
2024/03/23 07:00:02;;;;;;;;;;;;;;;;;;;;;
2024/03/23 07:02:53;;;;;;;14.00;1.52;;;;;;;4.71;100.00;100313.41;4808332;29;20571;-94
2024/03/23 07:05:30;;;;;;;12.65;1.73;;;;;;;4.71;100.00;100316.84;4776545;29;20661;-94
2024/03/23 07:08:06;;;;;;;8.63;1.48;;;;;;;4.70;100.00;100320.41;4811150;29;20069;-95
2024/03/23 07:11:02;;;;;;;12.80;1.67;;;;;;;4.72;100.00;100326.38;4775623;29;20050;-96
2024/03/23 07:13:58;;;;;;;13.43;1.55;;;;;;;4.79;100.00;100318.09;4813546;29;20046;-95
2024/03/23 07:16:29;;;;;;;15.35;1.77;;;;;;;4.76;100.00;100320.94;4767536;29;20039;-96
2024/03/23 07:19:45;;;;;;;15.93;2.15;;;;;;;4.77;100.00;100322.59;4793478;29;20039;-94
2024/03/23 07:22:55;;;;;;;9.00;1.00;;;;;;;4.81;100.00;100324.06;4782532;29;20137;-95
2024/03/23 07:25:39;;;;;;;6.53;1.10;;;;;;;4.79;100.00;100321.56;4805068;29;20039;-96
2024/03/23 07:28:32;;;;;;;7.43;0.93;;;;;;;4.79;100.00;100326.78;4806367;29;20062;-95
2024/03/23 07:31:30;;;;;;;10.65;1.25;;;;;;;4.72;100.00;100336.00;4790432;29;20138;-96
2024/03/23 07:34:12;;;;;;;15.68;1.60;;;;;;;4.72;100.00;100325.53;4771792;30;20058;-95
2024/03/23 07:36:56;;;;;;;14.55;1.77;;;;;;;4.67;100.00;100331.09;4787084;29;20047;-96
2024/03/23 07:39:41;;;;;;;9.65;1.30;;;;;;;4.53;100.00;100323.38;4789744;29;20043;-95
2024/03/23 07:42:10;;;;;;;13.02;1.60;;;;;;;4.62;100.00;100322.72;4806572;29;20046;-95
2024/03/23 07:44:47;;;;;;;7.78;1.13;;;;;;;4.58;100.00;100322.13;4777384;29;20042;-96
2024/03/23 07:47:23;;;;;;;6.28;1.08;;;;;;;4.66;100.00;100339.06;4795615;29;20034;-96
2024/03/23 07:50:01;;;;;;;11.43;1.48;;;;;;;4.61;100.00;100338.56;4791500;29;20046;-96
2024/03/23 07:53:19;;;;;;;9.20;1.08;;;;;;;4.61;100.00;100323.69;4768778;29;20039;-96
2024/03/23 07:56:10;;;;;;;7.28;0.70;;;;;;;4.66;100.00;100334.69;4785499;29;20049;-95
2024/03/23 07:58:47;;;;;;;7.88;1.25;;;;;;;4.64;100.00;100328.72;4765258;29;20030;-96
2024/03/23 08:01:50;;;;;;;8.45;0.95;;;;;;;4.67;100.00;100333.72;4793015;29;20586;-95
2024/03/23 08:05:08;;;;;;;3.38;0.77;;;;;;;4.68;100.00;100322.28;4757032;29;20050;-96
2024/03/23 08:07:56;;;;;;;14.90;1.90;;;;;;;4.69;100.00;100331.84;4789692;29;20055;-95
2024/03/23 08:11:39;;;;;;;7.60;1.17;;;;;;;4.76;100.00;100334.03;4803608;29;20132;-95
2024/03/23 08:14:36;;;;;;;7.57;1.05;;;;;;;4.74;100.00;100325.44;4775090;29;20043;-95
2024/03/23 08:17:10;;;;;;;10.55;2.08;;;;;;;4.77;100.00;100347.00;4775315;29;20042;-95
2024/03/23 08:19:44;;;;;;;7.13;1.10;;;;;;;4.74;100.00;100339.38;4762247;29;20043;-93
2024/03/23 08:22:46;;;;;;;10.35;1.23;;;;;;;4.85;100.00;100343.84;4772263;29;20031;-96
2024/03/23 08:25:23;;;;;;;5.68;0.82;;;;;;;4.80;100.00;100356.41;4776825;29;20046;-95
2024/03/23 08:28:03;;;;;;;4.75;0.57;;;;;;;4.81;100.00;100358.13;4771363;29;20577;-95
2024/03/23 08:30:32;;;;;;;7.95;1.55;;;;;;;4.72;100.00;100347.34;4785027;29;20046;-95
2024/03/23 08:33:01;;;;;;;4.93;0.93;;;;;;;4.84;100.00;100348.22;4770164;30;20555;-95
2024/03/23 08:35:31;;;;;;;7.15;1.02;;;;;;;4.89;100.00;100353.16;4783130;29;20533;-96
2024/03/23 08:37:57;;;;;;;7.30;1.20;;;;;;;5.00;100.00;100354.19;4772246;29;20042;-95
2024/03/23 08:40:26;;;;;;;10.55;2.72;;;;;;;5.02;100.00;100350.47;4758456;29;20035;-94
2024/03/23 08:43:01;;;;;;;7.05;1.20;;;;;;;5.03;100.00;100352.16;4775311;29;20049;-94
2024/03/23 08:45:27;;;;;;;7.90;1.38;;;;;;;5.02;100.00;100349.63;4754874;29;20064;-92
2024/03/23 08:47:53;;;;;;;8.75;1.13;;;;;;;5.00;100.00;100354.19;4784730;30;20055;-95
2024/03/23 08:50:22;;;;;;;9.88;1.20;;;;;;;5.05;100.00;100350.25;4756053;29;20055;-95
2024/03/23 08:53:01;;;;;;;11.20;1.40;;;;;;;5.12;100.00;100345.44;4765477;29;20043;-96
2024/03/23 08:58:53;;;;;;;7.95;1.20;;;;;;;5.14;100.00;100345.31;4782535;29;20053;-94
2024/03/23 09:01:29;;;;;;;3.25;0.50;;;;;;;5.24;100.00;100351.53;4760094;29;20490;-95
2024/03/23 09:04:01;;;;;;;4.18;0.70;;;;;;;5.41;100.00;100358.19;4788189;29;20043;-96
2024/03/23 09:06:30;;;;;;;5.13;0.82;;;;;;;5.44;100.00;100363.22;4788410;29;20050;-96
2024/03/23 09:09:27;;;;;;;4.82;0.73;;;;;;;5.53;100.00;100361.69;4770536;30;20131;-94
2024/03/23 09:12:10;;;;;;;7.30;0.88;;;;;;;5.56;100.00;100358.00;4785435;29;20049;-95
2024/03/23 09:14:38;;;;;;;3.78;0.60;;;;;;;5.50;100.00;100348.81;4776312;29;20099;-95
2024/03/23 09:17:20;;;;;;;5.40;0.98;;;;;;;5.50;100.00;100356.66;4787088;29;20047;-95
2024/03/23 09:19:47;;;;;;;8.73;0.98;;;;;;;5.50;100.00;100345.34;4803276;29;20046;-96
2024/03/23 09:22:16;;;;;;;6.75;1.48;;;;;;;5.51;100.00;100336.53;4791187;29;20138;-94
2024/03/23 09:24:51;;;;;;;2.85;0.70;;;;;;;5.69;100.00;100342.19;4806781;29;20042;-96
2024/03/23 09:27:20;;;;;;;7.70;1.60;;;;;;;5.59;100.00;100334.16;4793368;29;20026;-91
2024/03/23 09:29:59;;;;;;;6.40;0.90;;;;;;;5.66;100.00;100330.16;4778445;29;20050;-93
2024/03/23 09:32:32;;;;;;;6.15;0.90;;;;;;;5.76;100.00;100339.94;4794192;29;20505;-96
2024/03/23 09:35:26;;;;;;;9.15;0.85;;;;;;;5.69;100.00;100339.56;4800916;29;20038;-95
2024/03/23 09:37:58;;;;;;;5.38;0.90;;;;;;;5.76;100.00;100350.44;4777272;29;20034;-95
2024/03/23 09:40:25;;;;;;;4.78;0.88;;;;;;;5.69;100.00;100347.44;4791577;29;20051;-94
2024/03/23 09:43:07;;;;;;;5.40;0.60;;;;;;;5.79;100.00;100344.94;4777161;29;20565;-94
2024/03/23 09:45:39;;;;;;;2.60;0.50;;;;;;;5.82;100.00;100345.56;4794937;29;20192;-92
2024/03/23 09:48:12;;;;;;;5.65;1.15;;;;;;;5.87;100.00;100347.84;4787326;29;20039;-94
2024/03/23 09:50:44;;;;;;;4.05;1.10;;;;;;;5.93;100.00;100344.75;4793432;29;20062;-94
2024/03/23 09:53:25;;;;;;;1.88;0.40;;;;;;;6.03;100.00;100344.91;4790759;29;20047;-94
2024/03/23 09:55:59;;;;;;;4.95;0.80;;;;;;;6.14;100.00;100343.25;4804981;29;20050;-92
2024/03/23 09:58:25;;;;;;;2.65;0.63;;;;;;;6.28;100.00;100358.78;4784020;29;20046;-92
2024/03/23 10:00:51;;;;;;;2.85;0.70;;;;;;;6.34;100.00;100346.97;4781285;29;20038;-93
2024/03/23 10:03:17;;;;;;;7.00;0.85;;;;;;;6.35;100.00;100359.16;4791263;29;20327;-95
2024/03/23 10:05:47;;;;;;;4.07;0.52;;;;;;;6.37;100.00;100348.53;4779242;29;20026;-93
2024/03/23 10:08:39;;;;;;;1.92;0.45;;;;;;;6.36;100.00;100341.59;4817254;29;20047;-94
2024/03/23 10:11:21;;;;;;;;;;;;;;;6.27;100.00;100340.53;4791340;29;20041;-94
2024/03/23 10:14:02;;;;;;;5.18;0.95;;;;;;;6.39;100.00;100333.47;4804553;29;19916;-94
2024/03/23 10:16:29;;;;;;;6.82;1.15;;;;;;;6.54;100.00;100336.69;4794447;29;20039;-95
2024/03/23 10:19:17;;;;;;;5.13;0.73;;;;;;;6.70;100.00;100336.34;4793041;29;20049;-94
2024/03/23 10:22:02;;;;;;;5.05;0.80;;;;;;;6.78;100.00;100333.94;4791291;29;20051;-92
2024/03/23 10:24:33;;;;;;;6.85;1.13;;;;;;;6.86;100.00;100332.47;4812704;29;20049;-94
2024/03/23 10:30:27;;;;;;;8.35;1.13;;;;;;;7.08;100.00;100342.09;4807665;29;20516;-94
2024/03/23 10:33:18;;;;;;;8.32;1.05;;;;;;;7.16;100.00;100359.88;4785038;29;20112;-94
2024/03/23 10:36:12;;;;;;;5.50;0.85;;;;;;;7.26;100.00;100357.34;4780325;29;20050;-95
2024/03/23 10:39:09;;;;;;;6.00;1.00;;;;;;;7.27;100.00;100357.22;4793416;29;20050;-94
2024/03/23 10:41:44;;;;;;;6.05;1.20;;;;;;;7.38;100.00;100373.91;4790721;29;20509;-95
2024/03/23 10:44:20;;;;;;;8.43;0.90;;;;;;;7.50;100.00;100372.88;4794789;29;20157;-95
2024/03/23 10:46:58;;;;;;;7.10;1.58;;;;;;;7.49;100.00;100380.91;4780042;29;20042;-96
2024/03/23 10:49:58;;;;;;;6.57;0.90;;;;;;;7.34;100.00;100377.75;4807580;29;20042;-94
2024/03/23 10:53:04;;;;;;;6.07;1.17;;;;;;;7.27;100.00;100364.25;4783866;29;20042;-95
2024/03/23 10:55:36;;;;;;;7.10;1.00;;;;;;;7.26;100.00;100362.59;4792519;29;20059;-95
2024/03/23 10:58:38;;;;;;;8.07;0.80;;;;;;;7.34;100.00;100351.44;4807621;29;20046;-93
2024/03/23 11:07:34;;;;;;;7.45;1.30;;;;;;;7.51;100.00;100363.22;4787282;29;20046;-93
2024/03/23 11:10:38;;;;;;;9.32;1.83;;;;;;;7.59;100.00;100362.56;4777269;29;20143;-93
2024/03/23 11:13:36;;;;;;;16.55;1.42;;;;;;;7.64;100.00;100377.03;4806903;29;20043;-94
2024/03/23 11:16:35;;;;;;;18.33;3.97;;;;;;;7.88;100.00;100364.59;4736464;29;20050;-94
2024/03/23 11:19:39;;;;;;;8.63;1.40;;;;;;;8.02;100.00;100350.25;4773732;29;20050;-91
2024/03/23 11:22:16;;;;;;;9.07;1.13;;;;;;;8.17;100.00;100345.50;4790417;29;20467;-93
2024/03/23 11:24:53;;;;;;;6.60;1.80;;;;;;;8.34;100.00;100343.22;4768985;29;20510;-93
2024/03/23 11:27:23;;;;;;;5.80;1.60;;;;;;;8.34;100.00;100336.16;4761080;29;20099;-91
2024/03/23 11:29:54;;;;;;;7.95;1.35;;;;;;;8.35;100.00;100321.16;4790570;29;20042;-95
2024/03/23 11:32:33;;;;;;;11.10;2.10;;;;;;;8.31;100.00;100362.75;4774272;29;20054;-92
2024/03/23 11:35:05;;;;;;;8.68;2.70;;;;;;;7.25;100.00;100406.44;4788314;29;20053;-94
2024/03/23 11:37:57;;;;;;;10.90;5.70;;;;;;;6.18;100.00;100403.25;4753739;29;20479;-94
2024/03/23 11:40:23;;;;;;;5.53;0.88;;;;;;;5.67;100.00;100362.47;4792191;29;20065;-94
2024/03/23 11:42:58;;;;;;;4.13;0.77;;;;;;;5.60;100.00;100364.69;4758516;29;20121;-93
2024/03/23 11:45:26;;;;;;;6.88;1.15;;;;;;;5.70;100.00;100354.38;4786670;29;20046;-93
2024/03/23 11:48:14;;;;;;;4.65;0.77;;;;;;;5.98;100.00;100343.56;4786262;29;20043;-94
2024/03/23 11:50:46;;;;;;;5.10;0.82;;;;;;;6.22;100.00;100342.66;4784703;29;20042;-94
2024/03/23 11:53:18;;;;;;;10.55;1.23;;;;;;;6.56;100.00;100348.75;4791433;29;20549;-94
2024/03/23 11:56:09;;;;;;;5.03;1.00;;;;;;;6.78;100.00;100336.56;4794122;29;20062;-95
2024/03/23 11:58:38;;;;;;;8.93;1.75;;;;;;;6.88;100.00;100331.38;4758552;29;20063;-95
2024/03/23 12:01:19;;;;;;;8.52;1.10;;;;;;;7.01;100.00;100320.72;4773224;29;20042;-93
2024/03/23 12:03:58;;;;;;;5.13;1.00;;;;;;;7.23;100.00;100349.69;4775533;29;20056;-92
2024/03/23 12:06:29;;;;;;;10.70;1.58;;;;;;;7.32;100.00;100334.03;4754449;29;20051;-94
2024/03/23 12:09:05;;;;;;;2.38;0.70;;;;;;;7.49;100.00;100331.78;4759034;29;20585;-91
2024/03/23 12:11:40;;;;;;;4.00;1.08;;;;;;;7.69;100.00;100322.22;4776000;29;20482;-94
2024/03/23 12:14:24;;;;;;;6.65;0.93;;;;;;;7.78;100.00;100328.53;4759367;29;20038;-94
2024/03/23 12:16:53;;;;;;;8.32;2.33;;;;;;;7.79;100.00;100334.59;4781999;29;20114;-95
2024/03/23 12:19:24;;;;;;;5.95;1.67;;;;;;;7.92;100.00;100310.72;4759994;29;20127;-95
2024/03/23 12:22:03;;;;;;;9.75;1.25;;;;;;;8.05;100.00;100314.00;4771923;29;20030;-93
2024/03/23 12:24:45;;;;;;;;;;;;;;;;;;;;;
2024/03/23 12:27:12;;;;;;;8.52;1.60;;;;;;;8.14;100.00;100325.53;4771063;29;20114;-93
2024/03/23 12:29:47;;;;;;;8.45;1.60;;;;;;;8.15;100.00;100311.41;4757088;29;20034;-96
2024/03/23 12:32:41;;;;;;;4.65;0.93;;;;;;;8.21;100.00;100325.00;4760100;29;20047;-94
2024/03/23 12:38:25;;;;;;;7.65;1.10;;;;;;;7.88;100.00;100338.28;4768084;29;20130;-94
2024/03/23 12:41:10;;;;;;;6.03;1.70;;;;;;;7.43;100.00;100345.44;4757228;29;20091;-91
2024/03/23 12:44:05;;;;;;;15.65;1.77;;;;;;;7.45;100.00;100333.00;4787031;29;20035;-95
2024/03/23 12:46:50;;;;;;;6.75;1.20;;;;;;;7.57;100.00;100328.50;4777415;29;20055;-95
2024/03/23 12:49:29;;;;;;;16.08;2.65;;;;;;;7.62;100.00;100307.09;4772663;29;20041;-93
2024/03/23 12:52:28;;;;;;;8.82;1.27;;;;;;;7.81;100.00;100301.94;4769629;29;20061;-91
2024/03/23 12:55:33;;;;;;;10.35;1.50;;;;;;;7.92;100.00;100298.41;4774411;30;20043;-94
2024/03/23 12:58:18;;;;;;;12.98;1.42;;;;;;;8.01;100.00;100303.84;4774032;29;20073;-93
2024/03/23 13:01:19;;;;;;;7.72;1.50;;;;;;;7.92;100.00;100311.56;4774625;29;20046;-93
2024/03/23 13:03:50;;;;;;;10.98;1.35;;;;;;;7.91;100.00;100322.22;4776278;29;20047;-93
2024/03/23 13:09:36;;;;;;;12.25;1.88;;;;;;;8.29;100.00;100312.84;4787463;29;20040;-94
2024/03/23 13:12:12;;;;;;;9.82;1.98;;;;;;;8.39;100.00;100320.75;4766072;29;20341;-94
2024/03/23 13:14:44;;;;;;;4.13;0.93;;;;;;;8.38;100.00;100299.81;4761321;29;20055;-94
2024/03/23 13:17:32;;;;;;;;;;;;;;;;;;;;;
2024/03/23 13:20:19;;;;;;;7.93;1.38;;;;;;;8.66;100.00;100310.63;4769546;29;20038;-94
2024/03/23 13:23:13;;;;;;;8.45;1.48;;;;;;;8.73;100.00;100303.84;4777231;29;20069;-93
2024/03/23 13:26:03;;;;;;;8.13;1.48;;;;;;;8.92;100.00;100323.28;4761134;29;20034;-95
2024/03/23 13:28:41;;;;;;;8.55;1.85;;;;;;;8.88;100.00;100293.75;4782090;29;20079;-92
2024/03/23 13:31:12;;;;;;;9.63;1.75;;;;;;;9.04;100.00;100300.28;4776256;29;20059;-94
2024/03/23 13:34:08;;;;;;;9.63;2.33;;;;;;;9.36;100.00;100300.97;4776520;29;20034;-93
2024/03/23 13:36:45;;;;;;;11.93;1.77;;;;;;;9.38;100.00;100302.50;4789463;29;20047;-93
2024/03/23 13:39:18;;;;;;;;;;;;;;;9.36;98.95;100282.50;4776610;29;20039;-95
2024/03/23 13:42:36;;;;;;;8.98;1.48;;;;;;;9.48;98.31;100297.22;4765985;29;20269;-94
2024/03/23 13:44:46;;;;;;;11.20;1.90;;;;;;;9.45;100.00;100297.50;4786620;29;20078;-92
2024/03/23 13:47:14;;;;;;;10.10;1.50;;;;;;;9.46;100.00;100298.34;4759636;29;20716;-93
2024/03/23 13:49:43;;;;;;;8.10;1.60;;;;;;;9.29;100.00;100296.25;4802159;29;20515;-92
2024/03/23 13:52:35;;;;;;;;;;;;;;;;;;;;;
2024/03/23 13:55:21;;;;;;;7.53;1.83;;;;;;;9.63;100.00;100305.53;4788795;29;20042;-91
2024/03/23 13:58:17;;;;;;;12.90;1.60;;;;;;;9.72;93.68;100306.47;4757835;30;20051;-94
2024/03/23 14:00:58;;;;;;;9.98;1.83;;;;;;;9.84;99.51;100298.41;4770154;29;20522;-94
2024/03/23 14:03:38;;;;;;;4.50;1.17;;;;;;;9.93;98.50;100286.97;4768754;29;20107;-91
2024/03/23 14:06:23;;;;;;;;;;;;;;;;;;;;;
2024/03/23 14:09:39;;;;;;;8.48;1.50;;;;;;;10.06;82.09;100286.66;4768260;30;20503;-93
2024/03/23 14:12:09;;;;;;;12.65;1.83;;;;;;;9.98;84.17;100281.25;4747948;29;20058;-90
2024/03/23 14:15:02;;;;;;;11.15;1.52;;;;;;;10.04;75.71;100278.88;4760995;29;20043;-94